createdAt,value
2023-01-18T00:00:34.567Z,2.30
2023-01-18T00:01:34.637Z,2.60
2023-01-18T00:02:34.475Z,2.20
2023-01-18T00:03:34.478Z,2.70
2023-01-18T00:04:34.507Z,2.00
2023-01-18T00:05:34.442Z,2.70
2023-01-18T00:06:34.500Z,1.90
2023-01-18T00:07:34.431Z,2.20
2023-01-18T00:08:34.417Z,2.30
2023-01-18T00:09:34.395Z,2.00
2023-01-18T00:10:34.371Z,2.40
2023-01-18T00:11:34.369Z,2.10
2023-01-18T00:12:34.394Z,2.00
2023-01-18T00:13:34.351Z,2.10
2023-01-18T00:14:34.330Z,2.00
2023-01-18T00:15:34.367Z,1.90
2023-01-18T00:16:34.356Z,2.00
2023-01-18T00:17:34.332Z,1.90
2023-01-18T00:18:34.316Z,2.20
2023-01-18T00:19:34.296Z,2.60
2023-01-18T00:20:34.273Z,2.20
2023-01-18T00:21:34.265Z,2.20
2023-01-18T00:22:34.313Z,2.40
2023-01-18T00:23:34.255Z,1.90
2023-01-18T00:24:34.234Z,2.40
2023-01-18T00:25:34.243Z,2.20
2023-01-18T00:26:34.229Z,2.80
2023-01-18T00:27:34.236Z,2.50
2023-01-18T00:28:34.226Z,2.90
2023-01-18T00:29:34.196Z,2.50
2023-01-18T00:30:34.181Z,2.40
2023-01-18T00:31:34.222Z,2.10
2023-01-18T00:32:34.189Z,2.00
2023-01-18T00:33:34.182Z,1.60
2023-01-18T00:34:34.148Z,3.30
2023-01-18T00:35:34.138Z,2.60
2023-01-18T00:36:34.130Z,2.40
2023-01-18T00:37:34.141Z,1.90
2023-01-18T00:38:34.134Z,2.80
2023-01-18T00:39:34.095Z,2.60
2023-01-18T00:40:34.086Z,2.00
2023-01-18T00:41:34.077Z,2.30
2023-01-18T00:42:34.078Z,2.60
2023-01-18T00:43:34.081Z,2.30
2023-01-18T00:44:34.035Z,2.80
2023-01-18T00:45:34.151Z,2.20
2023-01-18T00:46:34.018Z,3.00
2023-01-18T00:47:34.033Z,2.60
2023-01-18T00:48:34.014Z,2.30
2023-01-18T00:49:34.011Z,2.20
2023-01-18T00:50:34.008Z,3.00
2023-01-18T00:51:34.026Z,2.00
2023-01-18T00:52:33.997Z,2.30
2023-01-18T00:53:33.956Z,2.50
2023-01-18T00:54:33.950Z,2.80
2023-01-18T00:55:33.965Z,2.00
2023-01-18T00:56:33.929Z,2.90
2023-01-18T00:57:33.933Z,1.90
2023-01-18T00:58:33.904Z,2.10
2023-01-18T00:59:33.898Z,2.60
2023-01-18T01:00:33.897Z,2.60
2023-01-18T01:01:34.161Z,3.40
2023-01-18T01:02:33.913Z,2.20
2023-01-18T01:03:33.859Z,2.40
2023-01-18T01:04:33.872Z,2.50
2023-01-18T01:05:40.322Z,2.50
2023-01-18T01:06:33.821Z,2.40
2023-01-18T01:07:33.838Z,3.10
2023-01-18T01:08:33.806Z,2.40
2023-01-18T01:09:33.804Z,2.70
2023-01-18T01:10:33.812Z,2.90
2023-01-18T01:11:33.837Z,2.80
2023-01-18T01:12:33.800Z,2.80
2023-01-18T01:13:33.778Z,2.30
2023-01-18T01:14:33.772Z,2.60
2023-01-18T01:15:33.751Z,2.00
2023-01-18T01:16:33.769Z,2.80
2023-01-18T01:17:33.724Z,2.10
2023-01-18T01:18:33.790Z,2.40
2023-01-18T01:19:33.707Z,2.90
2023-01-18T01:20:33.695Z,2.70
2023-01-18T01:21:33.702Z,2.80
2023-01-18T01:22:33.695Z,2.60
2023-01-18T01:23:33.687Z,2.50
2023-01-18T01:24:33.657Z,3.00
2023-01-18T01:25:33.655Z,3.00
2023-01-18T01:26:33.628Z,2.90
2023-01-18T01:27:33.657Z,2.60
2023-01-18T01:28:33.640Z,3.20
2023-01-18T01:29:33.609Z,2.70
2023-01-18T01:30:33.633Z,2.30
2023-01-18T01:31:33.582Z,2.60
2023-01-18T01:32:33.568Z,2.40
2023-01-18T01:33:33.583Z,2.90
2023-01-18T01:34:33.580Z,2.40
2023-01-18T01:35:33.554Z,2.40
2023-01-18T01:36:33.528Z,2.40
2023-01-18T01:37:33.532Z,2.60
2023-01-18T01:38:33.555Z,2.60
2023-01-18T01:39:33.516Z,2.30
2023-01-18T01:40:33.492Z,2.50
2023-01-18T01:41:33.524Z,2.60
2023-01-18T01:42:33.480Z,2.30
2023-01-18T01:43:33.502Z,2.70
2023-01-18T01:44:33.481Z,2.30
2023-01-18T01:45:33.506Z,2.50
2023-01-18T01:46:33.438Z,3.10
2023-01-18T01:47:33.431Z,2.30
2023-01-18T01:48:33.436Z,3.40
2023-01-18T01:49:33.446Z,3.00
2023-01-18T01:50:33.389Z,2.30
2023-01-18T01:51:33.383Z,3.10
2023-01-18T01:52:33.407Z,2.90
2023-01-18T01:53:33.391Z,2.30
2023-01-18T01:54:33.370Z,2.60
2023-01-18T01:55:33.344Z,2.30
2023-01-18T01:56:33.352Z,2.70
2023-01-18T01:57:33.337Z,2.70
2023-01-18T01:58:33.340Z,2.20
2023-01-18T01:59:33.330Z,3.40
2023-01-18T02:00:33.290Z,3.20
2023-01-18T02:01:33.424Z,3.00
2023-01-18T02:02:33.327Z,2.70
2023-01-18T02:03:33.297Z,3.40
2023-01-18T02:04:33.264Z,2.70
2023-01-18T02:05:33.259Z,2.50
2023-01-18T02:06:33.240Z,3.30
2023-01-18T02:07:33.265Z,3.40
2023-01-18T02:08:33.242Z,2.90
2023-01-18T02:09:33.225Z,2.90
2023-01-18T02:10:33.212Z,3.50
2023-01-18T02:11:33.204Z,3.20
2023-01-18T02:12:33.200Z,3.30
2023-01-18T02:13:33.199Z,2.80
2023-01-18T02:14:33.216Z,2.70
2023-01-18T02:15:33.170Z,3.00
2023-01-18T02:16:33.177Z,2.50
2023-01-18T02:17:33.171Z,2.80
2023-01-18T02:18:33.163Z,3.00
2023-01-18T02:19:33.112Z,3.40
2023-01-18T02:20:33.096Z,3.10
2023-01-18T02:21:33.100Z,3.20
2023-01-18T02:22:33.076Z,3.30
2023-01-18T02:23:33.119Z,2.50
2023-01-18T02:24:33.057Z,2.70
2023-01-18T02:25:33.073Z,3.00
2023-01-18T02:26:33.036Z,3.60
2023-01-18T02:27:33.037Z,3.40
2023-01-18T02:28:33.069Z,3.10
2023-01-18T02:29:33.011Z,3.40
2023-01-18T02:30:33.065Z,3.30
2023-01-18T02:31:33.009Z,3.20
2023-01-18T02:32:32.989Z,2.90
2023-01-18T02:33:33.034Z,3.10
2023-01-18T02:34:33.019Z,4.00
2023-01-18T02:35:32.962Z,3.10
2023-01-18T02:36:32.944Z,3.00
2023-01-18T02:37:32.939Z,3.20
2023-01-18T02:38:33.007Z,3.30
2023-01-18T02:39:32.915Z,3.60
2023-01-18T02:40:32.911Z,3.60
2023-01-18T02:41:32.923Z,2.90
2023-01-18T02:42:32.892Z,3.80
2023-01-18T02:43:32.884Z,3.10
2023-01-18T02:44:32.896Z,3.30
2023-01-18T02:45:35.761Z,2.60
2023-01-18T02:46:32.856Z,3.40
2023-01-18T02:47:32.858Z,4.00
2023-01-18T02:48:32.821Z,3.00
2023-01-18T02:49:32.868Z,4.00
2023-01-18T02:50:32.812Z,3.60
2023-01-18T02:51:32.808Z,2.60
2023-01-18T02:52:32.791Z,2.80
2023-01-18T02:53:32.790Z,2.90
2023-01-18T02:54:32.793Z,3.00
2023-01-18T02:55:32.768Z,2.90
2023-01-18T02:56:32.749Z,2.70
2023-01-18T02:57:32.769Z,3.20
2023-01-18T02:58:32.750Z,3.10
2023-01-18T02:59:32.761Z,3.10
2023-01-18T03:00:32.719Z,2.20
2023-01-18T03:01:32.782Z,2.90
2023-01-18T03:02:32.718Z,2.60
2023-01-18T03:03:32.705Z,3.10
2023-01-18T03:04:32.699Z,2.70
2023-01-18T03:05:32.671Z,2.70
2023-01-18T03:06:32.658Z,3.10
2023-01-18T03:07:32.645Z,2.70
2023-01-18T03:08:32.647Z,3.20
2023-01-18T03:09:32.650Z,2.60
2023-01-18T03:10:32.635Z,3.00
2023-01-18T03:11:32.607Z,2.70
2023-01-18T03:12:32.601Z,2.70
2023-01-18T03:13:32.593Z,2.90
2023-01-18T03:14:32.603Z,2.80
2023-01-18T03:15:32.623Z,2.70
2023-01-18T03:16:32.587Z,3.10
2023-01-18T03:17:32.548Z,2.80
2023-01-18T03:18:32.577Z,2.90
2023-01-18T03:19:32.562Z,3.60
2023-01-18T03:20:32.534Z,2.50
2023-01-18T03:21:32.535Z,2.90
2023-01-18T03:22:32.514Z,3.90
2023-01-18T03:23:38.988Z,2.50
2023-01-18T03:24:32.499Z,3.20
2023-01-18T03:25:32.500Z,3.10
2023-01-18T03:26:32.499Z,3.20
2023-01-18T03:27:32.458Z,3.40
2023-01-18T03:28:32.464Z,3.60
2023-01-18T03:29:32.461Z,3.10
2023-01-18T03:30:32.544Z,2.90
2023-01-18T03:31:32.472Z,3.30
2023-01-18T03:32:32.410Z,3.20
2023-01-18T03:33:32.447Z,3.50
2023-01-18T03:34:32.425Z,3.40
2023-01-18T03:35:32.421Z,3.90
2023-01-18T03:36:32.390Z,2.90
2023-01-18T03:37:32.388Z,3.20
2023-01-18T03:38:32.384Z,3.20
2023-01-18T03:39:32.381Z,3.70
2023-01-18T03:40:32.335Z,2.90
2023-01-18T03:41:32.404Z,3.50
2023-01-18T03:42:32.318Z,3.10
2023-01-18T03:43:32.311Z,3.60
2023-01-18T03:44:32.308Z,4.10
2023-01-18T03:45:32.294Z,3.30
2023-01-18T03:46:32.379Z,3.50
2023-01-18T03:47:32.410Z,3.10
2023-01-18T03:48:32.254Z,3.40
2023-01-18T03:49:32.268Z,3.60
2023-01-18T03:50:32.228Z,3.20
2023-01-18T03:51:32.255Z,3.90
2023-01-18T03:52:32.218Z,3.40
2023-01-18T03:53:32.215Z,3.20
2023-01-18T03:54:32.231Z,3.50
2023-01-18T03:55:32.194Z,3.80
2023-01-18T03:56:32.177Z,2.90
2023-01-18T03:57:32.189Z,3.30
2023-01-18T03:58:32.164Z,4.30
2023-01-18T03:59:32.187Z,4.10
2023-01-18T04:00:32.140Z,4.00
2023-01-18T04:01:32.257Z,3.50
2023-01-18T04:02:32.198Z,3.80
2023-01-18T04:03:38.590Z,3.30
2023-01-18T04:04:39.723Z,4.30
2023-01-18T04:05:38.585Z,3.90
2023-01-18T04:06:38.560Z,3.80
2023-01-18T04:07:32.078Z,3.60
2023-01-18T04:08:32.085Z,3.30
2023-01-18T04:09:32.057Z,3.80
2023-01-18T04:10:32.057Z,3.50
2023-01-18T04:11:32.031Z,3.80
2023-01-18T04:12:32.018Z,3.20
2023-01-18T04:13:32.028Z,3.20
2023-01-18T04:14:32.029Z,4.10
2023-01-18T04:15:32.030Z,3.90
2023-01-18T04:16:31.980Z,4.40
2023-01-18T04:17:31.993Z,4.10
2023-01-18T04:18:31.964Z,4.20
2023-01-18T04:19:31.956Z,3.30
2023-01-18T04:20:32.002Z,4.60
2023-01-18T04:21:31.935Z,3.60
2023-01-18T04:22:31.943Z,3.20
2023-01-18T04:23:31.918Z,3.90
2023-01-18T04:24:31.916Z,3.90
2023-01-18T04:25:31.942Z,3.60
2023-01-18T04:26:31.888Z,3.60
2023-01-18T04:27:31.896Z,3.40
2023-01-18T04:28:31.877Z,3.10
2023-01-18T04:29:31.879Z,4.50
2023-01-18T04:30:31.877Z,3.70
2023-01-18T04:31:31.955Z,3.60
2023-01-18T04:32:31.858Z,3.20
2023-01-18T04:33:31.822Z,4.20
2023-01-18T04:34:31.808Z,4.20
2023-01-18T04:35:31.822Z,3.50
2023-01-18T04:36:31.791Z,3.40
2023-01-18T04:37:31.822Z,3.90
2023-01-18T04:38:31.774Z,3.70
2023-01-18T04:39:31.766Z,4.00
2023-01-18T04:40:31.777Z,4.30
2023-01-18T04:41:31.783Z,3.40
2023-01-18T04:42:31.732Z,3.70
2023-01-18T04:43:31.729Z,3.30
2023-01-18T04:44:31.712Z,3.90
2023-01-18T04:45:31.788Z,3.50
2023-01-18T04:46:31.783Z,4.00
2023-01-18T04:47:31.685Z,4.10
2023-01-18T04:48:31.696Z,3.60
2023-01-18T04:49:31.668Z,3.30
2023-01-18T04:50:31.668Z,4.40
2023-01-18T04:51:31.671Z,3.20
2023-01-18T04:52:31.661Z,3.40
2023-01-18T04:53:31.640Z,3.80
2023-01-18T04:54:31.615Z,3.80
2023-01-18T04:55:31.656Z,4.00
2023-01-18T04:56:31.605Z,4.00
2023-01-18T04:57:31.585Z,4.60
2023-01-18T04:58:31.576Z,3.50
2023-01-18T04:59:31.577Z,4.10
2023-01-18T05:00:31.637Z,4.10
2023-01-18T05:01:31.636Z,3.60
2023-01-18T05:02:31.565Z,3.30
2023-01-18T05:03:31.621Z,4.00
2023-01-18T05:04:31.517Z,3.20
2023-01-18T05:05:31.552Z,3.90
2023-01-18T05:06:31.568Z,3.10
2023-01-18T05:07:31.492Z,4.30
2023-01-18T05:08:31.482Z,4.10
2023-01-18T05:09:31.484Z,4.80
2023-01-18T05:10:31.486Z,4.20
2023-01-18T05:11:31.479Z,4.60
2023-01-18T05:12:31.456Z,4.50
2023-01-18T05:13:31.436Z,3.10
2023-01-18T05:14:31.428Z,3.70
2023-01-18T05:15:31.437Z,4.50
2023-01-18T05:16:31.424Z,4.40
2023-01-18T05:17:31.408Z,4.10
2023-01-18T05:18:31.393Z,3.90
2023-01-18T05:19:31.401Z,4.00
2023-01-18T05:20:31.400Z,3.70
2023-01-18T05:21:31.365Z,3.90
2023-01-18T05:22:31.346Z,4.30
2023-01-18T05:23:31.341Z,3.90
2023-01-18T05:24:31.337Z,3.50
2023-01-18T05:25:31.358Z,3.80
2023-01-18T05:26:31.308Z,3.60
2023-01-18T05:27:31.300Z,4.00
2023-01-18T05:28:31.289Z,3.60
2023-01-18T05:29:31.278Z,3.20
2023-01-18T05:30:31.296Z,4.80
2023-01-18T05:31:31.307Z,3.60
2023-01-18T05:32:31.243Z,3.60
2023-01-18T05:33:31.245Z,3.70
2023-01-18T05:34:31.235Z,3.50
2023-01-18T05:35:31.269Z,4.00
2023-01-18T05:36:31.207Z,4.00
2023-01-18T05:37:31.205Z,4.00
2023-01-18T05:38:31.188Z,3.70
2023-01-18T05:39:31.203Z,4.60
2023-01-18T05:40:31.254Z,4.30
2023-01-18T05:41:37.657Z,3.80
2023-01-18T05:42:31.148Z,3.50
2023-01-18T05:43:31.139Z,4.30
2023-01-18T05:44:31.146Z,3.90
2023-01-18T05:45:31.227Z,3.30
2023-01-18T05:46:31.108Z,3.90
2023-01-18T05:47:31.115Z,4.20
2023-01-18T05:48:31.107Z,4.10
2023-01-18T05:49:31.116Z,3.80
2023-01-18T05:50:31.099Z,4.50
2023-01-18T05:51:31.231Z,4.80
2023-01-18T05:52:31.063Z,4.20
2023-01-18T05:53:31.077Z,3.30
2023-01-18T05:54:31.104Z,3.70
2023-01-18T05:55:31.049Z,4.00
2023-01-18T05:56:31.041Z,3.40
2023-01-18T05:57:31.013Z,4.20
2023-01-18T05:58:30.991Z,4.30
2023-01-18T05:59:31.008Z,4.70
2023-01-18T06:00:31.020Z,4.50
2023-01-18T06:01:31.059Z,3.40
2023-01-18T06:02:30.967Z,4.10
2023-01-18T06:03:30.975Z,3.50
2023-01-18T06:04:30.965Z,4.20
2023-01-18T06:05:30.959Z,3.80
2023-01-18T06:06:30.938Z,3.90
2023-01-18T06:07:30.911Z,3.90
2023-01-18T06:08:30.916Z,3.70
2023-01-18T06:09:30.926Z,4.40
2023-01-18T06:10:30.925Z,3.90
2023-01-18T06:11:30.887Z,3.70
2023-01-18T06:12:30.865Z,4.60
2023-01-18T06:13:30.888Z,4.80
2023-01-18T06:14:30.837Z,3.40
2023-01-18T06:15:30.833Z,4.60
2023-01-18T06:16:30.931Z,4.00
2023-01-18T06:17:30.818Z,4.00
2023-01-18T06:18:30.817Z,4.50
2023-01-18T06:19:30.808Z,3.50
2023-01-18T06:20:30.790Z,4.10
2023-01-18T06:21:30.816Z,4.60
2023-01-18T06:22:30.776Z,4.40
2023-01-18T06:23:30.764Z,4.30
2023-01-18T06:24:30.814Z,3.70
2023-01-18T06:25:30.751Z,5.60
2023-01-18T06:26:30.749Z,5.00
2023-01-18T06:27:30.732Z,4.50
2023-01-18T06:28:31.049Z,3.60
2023-01-18T06:29:30.722Z,4.30
2023-01-18T06:30:30.736Z,4.10
2023-01-18T06:31:30.741Z,4.50
2023-01-18T06:32:30.667Z,4.70
2023-01-18T06:33:30.681Z,4.80
2023-01-18T06:34:30.663Z,4.50
2023-01-18T06:35:30.644Z,4.40
2023-01-18T06:36:30.798Z,4.10
2023-01-18T06:37:30.630Z,4.60
2023-01-18T06:38:30.610Z,5.10
2023-01-18T06:39:30.615Z,4.80
2023-01-18T06:40:30.616Z,5.10
2023-01-18T06:41:30.624Z,4.80
2023-01-18T06:42:30.602Z,6.40
2023-01-18T06:43:30.582Z,15.60
2023-01-18T06:44:30.559Z,21.80
2023-01-18T06:45:30.620Z,14.60
2023-01-18T06:46:30.561Z,11.90
2023-01-18T06:47:30.527Z,9.80
2023-01-18T06:48:30.520Z,7.40
2023-01-18T06:49:30.791Z,4.80
2023-01-18T06:50:30.524Z,4.90
2023-01-18T06:51:30.522Z,4.80
2023-01-18T06:52:30.487Z,5.40
2023-01-18T06:53:30.488Z,4.90
2023-01-18T06:54:30.469Z,5.40
2023-01-18T06:55:30.479Z,4.30
2023-01-18T06:56:30.482Z,5.40
2023-01-18T06:57:30.439Z,4.30
2023-01-18T06:58:30.436Z,4.70
2023-01-18T06:59:30.421Z,5.00
2023-01-18T07:00:30.417Z,4.00
2023-01-18T07:01:30.586Z,4.50
2023-01-18T07:02:30.385Z,3.80
2023-01-18T07:03:30.418Z,5.20
2023-01-18T07:04:30.362Z,3.20
2023-01-18T07:05:30.351Z,3.90
2023-01-18T07:06:30.390Z,4.60
2023-01-18T07:07:30.349Z,3.90
2023-01-18T07:08:30.320Z,4.10
2023-01-18T07:09:30.318Z,4.20
2023-01-18T07:10:30.313Z,4.30
2023-01-18T07:11:30.384Z,4.60
2023-01-18T07:12:30.325Z,3.90
2023-01-18T07:13:30.284Z,4.80
2023-01-18T07:14:30.275Z,3.90
2023-01-18T07:15:30.263Z,4.30
2023-01-18T07:16:30.306Z,3.80
2023-01-18T07:17:30.237Z,4.80
2023-01-18T07:18:30.234Z,4.50
2023-01-18T07:19:30.237Z,3.70
2023-01-18T07:20:30.231Z,4.90
2023-01-18T07:21:30.218Z,4.30
2023-01-18T07:22:30.198Z,5.20
2023-01-18T07:23:30.190Z,4.00
2023-01-18T07:24:30.189Z,4.70
2023-01-18T07:25:30.229Z,4.10
2023-01-18T07:26:30.193Z,5.00
2023-01-18T07:27:30.149Z,4.00
2023-01-18T07:28:30.141Z,4.10
2023-01-18T07:29:30.141Z,4.60
2023-01-18T07:30:30.124Z,3.90
2023-01-18T07:31:30.219Z,4.20
2023-01-18T07:32:30.103Z,4.50
2023-01-18T07:33:30.088Z,4.00
2023-01-18T07:34:30.092Z,5.10
2023-01-18T07:35:30.091Z,4.30
2023-01-18T07:36:30.081Z,4.50
2023-01-18T07:37:30.063Z,4.00
2023-01-18T07:38:30.056Z,4.00
2023-01-18T07:39:30.029Z,4.90
2023-01-18T07:40:30.020Z,5.30
2023-01-18T07:41:31.066Z,4.40
2023-01-18T07:42:30.210Z,4.80
2023-01-18T07:43:29.997Z,4.00
2023-01-18T07:44:29.994Z,3.80
2023-01-18T07:45:29.987Z,4.60
2023-01-18T07:46:30.035Z,4.80
2023-01-18T07:47:29.972Z,4.00
2023-01-18T07:48:29.957Z,5.50
2023-01-18T07:49:29.947Z,4.90
2023-01-18T07:50:29.933Z,4.50
2023-01-18T07:51:29.953Z,6.40
2023-01-18T07:52:29.921Z,4.00
2023-01-18T07:53:29.913Z,5.30
2023-01-18T07:54:29.890Z,4.70
2023-01-18T07:55:29.868Z,5.00
2023-01-18T07:56:29.895Z,4.90
2023-01-18T07:57:29.852Z,3.40
2023-01-18T07:58:36.417Z,4.40
2023-01-18T07:59:29.829Z,4.80
2023-01-18T08:00:29.848Z,4.10
2023-01-18T08:01:30.032Z,4.00
2023-01-18T08:02:29.847Z,4.40
2023-01-18T08:03:29.820Z,5.10
2023-01-18T08:04:29.808Z,4.20
2023-01-18T08:05:29.790Z,4.00
2023-01-18T08:06:29.807Z,4.60
2023-01-18T08:07:29.771Z,3.90
2023-01-18T08:08:29.776Z,4.50
2023-01-18T08:09:29.746Z,4.30
2023-01-18T08:10:29.735Z,3.80
2023-01-18T08:11:29.795Z,4.50
2023-01-18T08:12:29.720Z,4.40
2023-01-18T08:13:29.719Z,3.80
2023-01-18T08:14:29.695Z,4.10
2023-01-18T08:15:29.734Z,3.70
2023-01-18T08:16:29.691Z,3.70
2023-01-18T08:17:29.726Z,4.50
2023-01-18T08:18:29.654Z,3.40
2023-01-18T08:19:29.643Z,3.70
2023-01-18T08:20:29.675Z,4.10
2023-01-18T08:21:29.622Z,3.60
2023-01-18T08:22:29.661Z,4.60
2023-01-18T08:23:29.607Z,3.30
2023-01-18T08:24:29.622Z,3.50
2023-01-18T08:25:29.601Z,3.40
2023-01-18T08:26:29.596Z,3.50
2023-01-18T08:27:29.605Z,3.90
2023-01-18T08:28:29.557Z,4.30
2023-01-18T08:29:29.544Z,4.10
2023-01-18T08:30:29.545Z,3.60
2023-01-18T08:31:29.598Z,4.10
2023-01-18T08:32:37.278Z,3.90
2023-01-18T08:33:36.000Z,3.70
2023-01-18T08:34:29.503Z,4.20
2023-01-18T08:35:29.489Z,3.80
2023-01-18T08:36:29.479Z,4.10
2023-01-18T08:37:29.490Z,3.20
2023-01-18T08:38:29.467Z,3.40
2023-01-18T08:39:29.460Z,3.70
2023-01-18T08:40:29.446Z,5.00
2023-01-18T08:41:29.491Z,4.50
2023-01-18T08:42:29.445Z,3.70
2023-01-18T08:43:29.429Z,3.90
2023-01-18T08:44:29.401Z,4.10
2023-01-18T08:45:29.391Z,3.60
2023-01-18T08:46:29.419Z,4.00
2023-01-18T08:47:29.402Z,4.50
2023-01-18T08:48:29.365Z,4.20
2023-01-18T08:49:29.367Z,3.80
2023-01-18T08:50:29.346Z,4.40
2023-01-18T08:51:29.329Z,4.10
2023-01-18T08:52:29.360Z,4.30
2023-01-18T08:53:29.338Z,4.00
2023-01-18T08:54:29.311Z,4.10
2023-01-18T08:55:29.314Z,4.30
2023-01-18T08:56:29.331Z,4.60
2023-01-18T08:57:29.321Z,4.60
2023-01-18T08:58:29.272Z,4.60
2023-01-18T08:59:29.324Z,4.60
2023-01-18T09:00:29.247Z,5.50
2023-01-18T09:01:29.441Z,5.30
2023-01-18T09:02:29.305Z,4.80
2023-01-18T09:03:29.215Z,4.40
2023-01-18T09:04:29.209Z,3.90
2023-01-18T09:05:29.240Z,4.70
2023-01-18T09:06:29.201Z,4.20
2023-01-18T09:07:29.201Z,3.90
2023-01-18T09:08:29.182Z,4.30
2023-01-18T09:09:29.151Z,4.40
2023-01-18T09:10:29.151Z,4.40
2023-01-18T09:11:29.143Z,4.20
2023-01-18T09:12:29.171Z,4.50
2023-01-18T09:13:29.119Z,4.00
2023-01-18T09:14:29.131Z,4.10
2023-01-18T09:15:29.103Z,3.60
2023-01-18T09:16:29.174Z,4.60
2023-01-18T09:17:29.127Z,4.30
2023-01-18T09:18:29.085Z,3.90
2023-01-18T09:19:29.055Z,3.30
2023-01-18T09:20:29.052Z,3.50
2023-01-18T09:21:29.177Z,3.70
2023-01-18T09:22:29.060Z,3.10
2023-01-18T09:23:29.030Z,3.80
2023-01-18T09:24:29.015Z,3.60
2023-01-18T09:25:28.997Z,3.10
2023-01-18T09:26:29.003Z,3.70
2023-01-18T09:27:29.032Z,3.30
2023-01-18T09:28:29.007Z,3.80
2023-01-18T09:29:28.983Z,3.80
2023-01-18T09:30:28.984Z,4.10
2023-01-18T09:31:29.103Z,3.80
2023-01-18T09:32:28.964Z,3.10
2023-01-18T09:33:36.903Z,3.80
2023-01-18T09:34:28.984Z,4.20
2023-01-18T09:35:28.901Z,3.40
2023-01-18T09:36:28.908Z,4.70
2023-01-18T09:37:28.917Z,4.30
2023-01-18T09:38:28.877Z,3.10
2023-01-18T09:39:28.919Z,3.80
2023-01-18T09:40:28.862Z,4.00
2023-01-18T09:41:28.850Z,3.40
2023-01-18T09:42:28.893Z,3.30
2023-01-18T09:43:28.824Z,4.30
2023-01-18T09:44:28.829Z,4.50
2023-01-18T09:45:28.873Z,3.40
2023-01-18T09:46:28.834Z,3.90
2023-01-18T09:47:28.815Z,4.40
2023-01-18T09:48:28.776Z,3.10
2023-01-18T09:49:28.787Z,3.90
2023-01-18T09:50:28.761Z,4.70
2023-01-18T09:51:28.758Z,3.60
2023-01-18T09:52:28.781Z,4.30
2023-01-18T09:53:28.731Z,3.90
2023-01-18T09:54:28.731Z,4.00
2023-01-18T09:55:28.769Z,3.60
2023-01-18T09:56:28.726Z,4.20
2023-01-18T09:57:28.697Z,3.90
2023-01-18T09:58:28.720Z,3.90
2023-01-18T09:59:28.665Z,3.50
2023-01-18T10:00:28.792Z,4.20
2023-01-18T10:01:28.780Z,3.90
2023-01-18T10:02:28.723Z,3.40
2023-01-18T10:03:28.649Z,4.00
2023-01-18T10:04:28.636Z,5.20
2023-01-18T10:05:28.618Z,4.90
2023-01-18T10:06:28.607Z,4.30
2023-01-18T10:07:28.592Z,3.70
2023-01-18T10:08:28.613Z,4.70
2023-01-18T10:09:28.578Z,4.40
2023-01-18T10:10:28.577Z,4.20
2023-01-18T10:11:28.553Z,5.10
2023-01-18T10:12:28.550Z,4.10
2023-01-18T10:13:28.604Z,3.70
2023-01-18T10:14:28.531Z,4.40
2023-01-18T10:15:28.548Z,5.00
2023-01-18T10:16:28.605Z,4.10
2023-01-18T10:17:28.512Z,4.70
2023-01-18T10:18:28.522Z,3.80
2023-01-18T10:19:34.956Z,3.90
2023-01-18T10:20:28.469Z,4.20
2023-01-18T10:21:28.465Z,4.50
2023-01-18T10:22:28.454Z,4.10
2023-01-18T10:23:28.466Z,4.10
2023-01-18T10:24:28.427Z,3.60
2023-01-18T10:25:28.422Z,3.60
2023-01-18T10:26:28.449Z,3.30
2023-01-18T10:27:28.442Z,3.70
2023-01-18T10:28:28.452Z,4.10
2023-01-18T10:29:28.381Z,3.70
2023-01-18T10:30:28.428Z,4.10
2023-01-18T10:31:28.447Z,3.90
2023-01-18T10:32:28.378Z,3.60
2023-01-18T10:33:28.384Z,5.10
2023-01-18T10:34:28.351Z,3.90
2023-01-18T10:35:28.328Z,3.70
2023-01-18T10:36:28.314Z,3.60
2023-01-18T10:37:28.349Z,4.00
2023-01-18T10:38:28.351Z,4.20
2023-01-18T10:39:28.289Z,3.80
2023-01-18T10:40:28.312Z,4.50
2023-01-18T10:41:28.286Z,4.50
2023-01-18T10:42:28.347Z,4.00
2023-01-18T10:43:28.264Z,4.30
2023-01-18T10:44:28.255Z,3.80
2023-01-18T10:45:28.264Z,4.10
2023-01-18T10:46:28.221Z,4.10
2023-01-18T10:47:28.195Z,4.10
2023-01-18T10:48:28.207Z,3.30
2023-01-18T10:49:28.175Z,3.40
2023-01-18T10:50:28.197Z,4.20
2023-01-18T10:51:28.200Z,3.80
2023-01-18T10:52:28.160Z,4.10
2023-01-18T10:53:28.192Z,3.90
2023-01-18T10:54:28.133Z,4.40
2023-01-18T10:55:28.122Z,4.10
2023-01-18T10:56:28.120Z,4.10
2023-01-18T10:57:28.124Z,5.00
2023-01-18T10:58:28.122Z,3.00
2023-01-18T10:59:28.078Z,4.20
2023-01-18T11:00:28.122Z,4.00
2023-01-18T11:01:28.147Z,4.10
2023-01-18T11:02:28.073Z,3.60
2023-01-18T11:03:28.064Z,4.00
2023-01-18T11:04:28.028Z,4.50
2023-01-18T11:05:28.042Z,4.00
2023-01-18T11:06:28.024Z,4.50
2023-01-18T11:07:28.020Z,3.90
2023-01-18T11:08:28.014Z,3.70
2023-01-18T11:09:27.980Z,4.00
2023-01-18T11:10:28.006Z,3.30
2023-01-18T11:11:27.965Z,4.00
2023-01-18T11:12:27.954Z,3.60
2023-01-18T11:13:27.990Z,3.30
2023-01-18T11:14:27.952Z,4.70
2023-01-18T11:15:27.945Z,3.70
2023-01-18T11:16:27.946Z,3.90
2023-01-18T11:17:27.894Z,4.70
2023-01-18T11:18:27.914Z,4.50
2023-01-18T11:19:27.904Z,4.00
2023-01-18T11:20:27.870Z,3.30
2023-01-18T11:21:27.876Z,3.80
2023-01-18T11:22:28.005Z,3.80
2023-01-18T11:23:27.863Z,3.30
2023-01-18T11:24:27.832Z,3.30
2023-01-18T11:25:27.860Z,3.80
2023-01-18T11:26:27.823Z,4.40
2023-01-18T11:27:27.826Z,4.00
2023-01-18T11:28:27.827Z,3.80
2023-01-18T11:29:28.781Z,3.80
2023-01-18T11:30:27.764Z,4.30
2023-01-18T11:31:27.795Z,3.90
2023-01-18T11:32:27.764Z,3.70
2023-01-18T11:33:27.776Z,3.90
2023-01-18T11:34:27.723Z,3.80
2023-01-18T11:35:27.735Z,3.50
2023-01-18T11:36:27.751Z,3.90
2023-01-18T11:37:27.717Z,4.40
2023-01-18T11:38:27.711Z,4.60
2023-01-18T11:39:27.682Z,4.10
2023-01-18T11:40:27.677Z,3.80
2023-01-18T11:41:27.661Z,4.40
2023-01-18T11:42:27.652Z,3.90
2023-01-18T11:43:27.668Z,4.20
2023-01-18T11:44:27.633Z,3.60
2023-01-18T11:45:27.641Z,3.30
2023-01-18T11:46:27.623Z,3.70
2023-01-18T11:47:27.630Z,3.50
2023-01-18T11:48:27.607Z,4.10
2023-01-18T11:49:27.582Z,3.70
2023-01-18T11:50:27.571Z,3.90
2023-01-18T11:51:27.574Z,4.00
2023-01-18T11:52:27.550Z,3.50
2023-01-18T11:53:27.591Z,4.20
2023-01-18T11:54:27.548Z,3.40
2023-01-18T11:55:27.517Z,3.90
2023-01-18T11:56:27.539Z,3.60
2023-01-18T11:57:27.554Z,3.40
2023-01-18T11:58:27.513Z,4.00
2023-01-18T11:59:27.490Z,3.80
2023-01-18T12:00:27.477Z,3.30
2023-01-18T12:01:27.465Z,4.20
2023-01-18T12:02:27.512Z,3.90
2023-01-18T12:03:27.552Z,3.60
2023-01-18T12:04:27.442Z,3.80
2023-01-18T12:05:27.428Z,4.10
2023-01-18T12:06:27.432Z,3.40
2023-01-18T12:07:27.418Z,3.60
2023-01-18T12:08:27.426Z,3.20
2023-01-18T12:09:27.377Z,4.50
2023-01-18T12:10:27.370Z,3.60
2023-01-18T12:11:27.365Z,4.10
2023-01-18T12:12:27.394Z,3.80
2023-01-18T12:13:27.346Z,4.00
2023-01-18T12:14:27.375Z,3.60
2023-01-18T12:15:27.329Z,4.00
2023-01-18T12:16:27.354Z,3.50
2023-01-18T12:17:27.375Z,3.50
2023-01-18T12:18:27.302Z,3.70
2023-01-18T12:19:27.332Z,3.70
2023-01-18T12:20:27.299Z,4.20
2023-01-18T12:21:27.286Z,2.80
2023-01-18T12:22:27.294Z,3.70
2023-01-18T12:23:27.296Z,3.70
2023-01-18T12:24:27.304Z,3.70
2023-01-18T12:25:27.237Z,3.10
2023-01-18T12:26:27.229Z,3.20
2023-01-18T12:27:27.223Z,3.10
2023-01-18T12:28:27.241Z,3.90
2023-01-18T12:29:27.213Z,3.90
2023-01-18T12:30:27.209Z,3.90
2023-01-18T12:31:27.178Z,3.80
2023-01-18T12:32:27.166Z,3.60
2023-01-18T12:33:42.300Z,3.10
2023-01-18T12:34:27.198Z,3.30
2023-01-18T12:35:27.145Z,3.90
2023-01-18T12:36:27.126Z,4.00
2023-01-18T12:37:27.120Z,3.70
2023-01-18T12:38:27.102Z,3.70
2023-01-18T12:39:27.123Z,3.30
2023-01-18T12:40:27.106Z,3.30
2023-01-18T12:41:27.086Z,3.70
2023-01-18T12:42:27.080Z,3.00
2023-01-18T12:43:27.075Z,3.40
2023-01-18T12:44:27.068Z,3.50
2023-01-18T12:45:27.052Z,3.40
2023-01-18T12:46:27.082Z,3.40
2023-01-18T12:47:27.015Z,4.10
2023-01-18T12:48:26.999Z,3.90
2023-01-18T12:49:27.021Z,3.30
2023-01-18T12:50:26.998Z,4.10
2023-01-18T12:51:26.994Z,3.20
2023-01-18T12:52:26.993Z,3.50
2023-01-18T12:53:26.968Z,3.80
2023-01-18T12:54:27.011Z,3.90
2023-01-18T12:55:26.983Z,3.30
2023-01-18T12:56:26.922Z,3.20
2023-01-18T12:57:26.932Z,3.10
2023-01-18T12:58:26.909Z,3.20
2023-01-18T12:59:26.950Z,3.60
2023-01-18T13:00:26.906Z,4.00
2023-01-18T13:01:26.987Z,3.50
2023-01-18T13:02:26.916Z,3.60
2023-01-18T13:03:26.881Z,3.60
2023-01-18T13:04:26.924Z,3.90
2023-01-18T13:05:26.849Z,3.80
2023-01-18T13:06:26.843Z,3.10
2023-01-18T13:07:26.818Z,3.80
2023-01-18T13:08:26.817Z,3.70
2023-01-18T13:09:26.844Z,3.20
2023-01-18T13:10:26.796Z,3.20
2023-01-18T13:11:26.787Z,3.40
2023-01-18T13:12:26.775Z,3.80
2023-01-18T13:13:26.764Z,4.20
2023-01-18T13:14:26.772Z,4.00
2023-01-18T13:15:26.839Z,3.20
2023-01-18T13:16:26.738Z,3.30
2023-01-18T13:17:26.729Z,3.00
2023-01-18T13:18:26.705Z,3.80